Estación Meteorológica Peña el Pijo (Robertgarden) [ 12/11/19 23:03:31 CET ]

Fecha Hora Presion(HPa) Temp (°C) Humedad % Rocio (°C) Viento ( m/s) Direccion Lluvia 1Hora(mm) Lluvia 24H(mm) LLuvia Total(mm)
2019-Sep-05 01:01:45 1011.400 14.9 86 12.6       0.51 391.83
2019-Sep-05 02:01:50 1010.800 14.2 86 11.9       0.51 391.83
2019-Sep-05 03:01:43 1010.500 13.1 87 11.0       0.51 391.83
2019-Sep-05 04:01:46 1010.500 12.3 88 10.3       0.51 391.83
2019-Sep-05 05:01:43 1010.500 11.6 89 9.8       0.51 391.83
2019-Sep-05 06:05:10 1010.300 11.2 89 9.4       0.51 391.83
2019-Sep-05 07:01:39 1011.000 11.8 90 10.2       0.51 391.83
2019-Sep-05 08:01:45 1011.400 12.8 90 11.2       0.51 391.83
2019-Sep-05 09:01:49 1011.400 14.6 91 13.2       0.51 391.83
2019-Sep-05 10:01:46 1011.600 16.4 91 15.0       0.51 391.83
2019-Sep-05 11:01:48 1011.400 20.4 84 17.6       0.51 391.83
2019-Sep-05 12:01:50 1011.500 23.4 70 17.7       0.51 391.83
2019-Sep-05 13:01:53 1011.300 26.9 57 17.6       0.51 391.83
2019-Sep-05 14:01:41 1011.200 28.3 52 17.2       0.51 391.83
2019-Sep-05 15:01:35 1010.600 29.9 46 17.0       0.51 391.83
2019-Sep-05 16:01:47 1010.100 28.8 48 16.7       0.51 391.83
2019-Sep-05 17:01:43 1010.100 23.8 60 15.6         391.83
2019-Sep-05 18:01:42 1010.300 25.0 56 15.6         391.83
2019-Sep-05 19:01:34 1010.500 22.7 63 15.3         391.83
2019-Sep-05 20:01:46 1010.500 21.9 66 15.2         391.83
2019-Sep-05 21:01:52 1011.000 20.3 72 15.1         391.83
2019-Sep-05 22:01:38 1011.300 18.1 77 14.0         391.83
2019-Sep-05 23:01:31 1011.800 17.7 81 14.4         391.83

Temperatura Máxima:29°    Temperatura Mínima:11°
Presión Máxima:1011.800 Hpa    Presión Mínima:1010.100 Hpa


Volver